createdAt,value
2019-05-01T00:02:41.224Z,14.48
2019-05-01T00:07:44.296Z,14.37
2019-05-01T00:12:47.118Z,14.24
2019-05-01T00:17:49.975Z,14.16
2019-05-01T00:22:52.720Z,13.99
2019-05-01T00:27:55.453Z,13.95
2019-05-01T00:32:58.190Z,13.91
2019-05-01T00:38:00.939Z,13.92
2019-05-01T00:43:03.665Z,13.98
2019-05-01T00:48:06.413Z,13.92
2019-05-01T00:53:09.247Z,13.79
2019-05-01T00:58:34.796Z,13.71
2019-05-01T01:03:38.730Z,13.70
2019-05-01T01:08:41.458Z,13.74
2019-05-01T01:13:44.190Z,13.77
2019-05-01T01:18:46.921Z,13.84
2019-05-01T01:23:49.784Z,13.70
2019-05-01T01:28:52.524Z,13.44
2019-05-01T01:33:55.255Z,13.38
2019-05-01T01:38:57.993Z,13.34
2019-05-01T01:44:08.995Z,13.21
2019-05-01T01:49:11.836Z,13.34
2019-05-01T01:54:14.703Z,13.15
2019-05-01T01:59:18.535Z,13.21
2019-05-01T02:04:46.850Z,13.43
2019-05-01T02:09:50.076Z,13.62
2019-05-01T02:14:52.808Z,13.71
2019-05-01T02:19:55.608Z,13.58
2019-05-01T02:24:58.340Z,13.15
2019-05-01T02:30:03.102Z,13.24
2019-05-01T02:35:07.207Z,13.00
2019-05-01T02:40:51.989Z,12.93
2019-05-01T02:45:58.457Z,13.04
2019-05-01T02:51:03.650Z,13.22
2019-05-01T02:56:34.825Z,13.07
2019-05-01T03:01:47.337Z,12.87
2019-05-01T03:06:44.686Z,12.96
2019-05-01T03:11:50.877Z,13.04
2019-05-01T03:17:00.445Z,13.16
2019-05-01T03:22:09.711Z,13.09
2019-05-01T03:27:12.576Z,12.97
2019-05-01T03:32:19.282Z,13.00
2019-05-01T03:37:20.670Z,13.02
2019-05-01T03:42:23.917Z,12.90
2019-05-01T03:47:26.801Z,12.96
2019-05-01T03:52:29.841Z,12.97
2019-05-01T03:57:32.797Z,13.09
2019-05-01T04:02:43.449Z,12.99
2019-05-01T04:07:47.001Z,12.84
2019-05-01T04:12:49.874Z,12.82
2019-05-01T04:17:54.862Z,12.86
2019-05-01T04:22:57.904Z,12.56
2019-05-01T04:28:20.992Z,12.77
2019-05-01T04:33:23.719Z,12.98
2019-05-01T04:38:26.578Z,12.86
2019-05-01T04:43:29.514Z,12.80
2019-05-01T04:48:32.553Z,12.54
2019-05-01T04:53:35.390Z,12.57
2019-05-01T04:58:38.479Z,12.71
2019-05-01T05:03:43.628Z,12.93
2019-05-01T05:08:47.051Z,13.11
2019-05-01T05:14:24.783Z,13.00
2019-05-01T05:19:27.807Z,13.11
2019-05-01T05:24:31.150Z,13.10
2019-05-01T05:29:35.376Z,13.01
2019-05-01T05:34:41.829Z,13.25
2019-05-01T05:39:46.583Z,13.23
2019-05-01T05:44:49.557Z,12.99
2019-05-01T05:49:52.432Z,12.89
2019-05-01T05:55:18.509Z,13.17
2019-05-01T06:00:47.419Z,12.96
2019-05-01T06:06:04.151Z,12.98
2019-05-01T06:11:29.788Z,12.82
2019-05-01T06:17:05.543Z,13.01
2019-05-01T06:22:34.804Z,12.88
2019-05-01T06:27:38.356Z,13.18
2019-05-01T06:32:41.377Z,13.80
2019-05-01T06:38:15.675Z,14.10
2019-05-01T06:43:32.489Z,14.31
2019-05-01T06:48:37.189Z,14.36
2019-05-01T06:53:41.145Z,14.47
2019-05-01T06:58:44.358Z,14.66
2019-05-01T07:04:02.970Z,15.04
2019-05-01T07:08:52.364Z,15.27
2019-05-01T07:13:55.903Z,15.21
2019-05-01T07:19:05.903Z,15.26
2019-05-01T07:24:05.823Z,15.47
2019-05-01T07:29:13.726Z,15.58
2019-05-01T07:34:17.038Z,15.89
2019-05-01T07:39:20.524Z,15.69
2019-05-01T07:44:33.925Z,15.93
2019-05-01T07:49:54.631Z,15.89
2019-05-01T07:54:58.210Z,16.26
2019-05-01T08:00:03.736Z,16.66
2019-05-01T08:05:10.026Z,16.73
2019-05-01T08:10:11.809Z,17.05
2019-05-01T08:15:14.556Z,17.00
2019-05-01T08:20:36.963Z,17.16
2019-05-01T08:25:39.837Z,17.17
2019-05-01T08:31:23.047Z,17.32
2019-05-01T08:36:25.289Z,17.33
2019-05-01T08:41:32.010Z,17.52
2019-05-01T08:46:58.168Z,17.43
2019-05-01T08:52:04.750Z,17.43
2019-05-01T08:57:07.933Z,17.18
2019-05-01T09:02:10.620Z,17.29
2019-05-01T09:07:14.607Z,17.51
2019-05-01T09:12:18.016Z,17.58
2019-05-01T09:17:20.759Z,17.50
2019-05-01T09:22:23.586Z,17.66
2019-05-01T09:27:37.269Z,17.53
2019-05-01T09:32:41.062Z,17.54
2019-05-01T09:37:43.830Z,17.77
2019-05-01T09:42:46.564Z,17.72
2019-05-01T09:47:49.393Z,18.09
2019-05-01T09:53:17.604Z,18.26
2019-05-01T09:58:20.385Z,18.34
2019-05-01T10:03:23.142Z,18.66
2019-05-01T10:08:25.889Z,18.51
2019-05-01T10:13:29.988Z,18.66
2019-05-01T10:18:32.860Z,18.47
2019-05-01T10:23:35.594Z,18.56
2019-05-01T10:28:54.748Z,18.76
2019-05-01T10:34:09.053Z,18.86
2019-05-01T10:39:16.037Z,18.91
2019-05-01T10:44:17.422Z,19.43
2019-05-01T10:49:20.184Z,19.47
2019-05-01T10:54:22.925Z,19.49
2019-05-01T10:59:25.770Z,19.18
2019-05-01T11:04:28.555Z,19.06
2019-05-01T11:09:31.322Z,19.06
2019-05-01T11:14:34.051Z,19.26
2019-05-01T11:19:36.785Z,19.32
2019-05-01T11:24:39.532Z,19.68
2019-05-01T11:29:42.259Z,19.93
2019-05-01T11:35:07.152Z,20.10
2019-05-01T11:40:24.943Z,20.22
2019-05-01T11:45:27.754Z,20.28
2019-05-01T11:50:30.523Z,20.21
2019-05-01T11:55:33.461Z,20.26
2019-05-01T12:00:48.934Z,20.46
2019-05-01T12:05:54.755Z,20.53
2019-05-01T12:10:58.627Z,20.84
2019-05-01T12:16:08.645Z,20.80
2019-05-01T12:21:11.419Z,20.95
2019-05-01T12:26:14.162Z,20.95
2019-05-01T12:31:17.032Z,21.09
2019-05-01T12:36:19.804Z,21.21
2019-05-01T12:41:29.760Z,21.31
2019-05-01T12:46:50.573Z,21.36
2019-05-01T12:52:09.599Z,21.20
2019-05-01T12:57:01.168Z,21.08
2019-05-01T13:02:07.686Z,21.51
2019-05-01T13:07:12.840Z,21.99
2019-05-01T13:12:15.571Z,22.08
2019-05-01T13:17:18.303Z,21.77
2019-05-01T13:22:21.202Z,22.06
2019-05-01T13:27:37.079Z,22.27
2019-05-01T13:32:44.573Z,22.39
2019-05-01T13:37:47.315Z,22.52
2019-05-01T13:42:50.051Z,22.22
2019-05-01T13:47:54.548Z,22.08
2019-05-01T13:52:57.533Z,22.72
2019-05-01T13:58:00.262Z,23.43
2019-05-01T14:03:03.113Z,23.40
2019-05-01T14:08:05.840Z,22.99
2019-05-01T14:13:08.587Z,23.12
2019-05-01T14:18:11.333Z,23.28
2019-05-01T14:23:23.327Z,22.65
2019-05-01T14:28:26.067Z,22.66
2019-05-01T14:33:28.805Z,22.93
2019-05-01T14:38:31.547Z,23.19
2019-05-01T14:43:34.294Z,23.20
2019-05-01T14:48:37.034Z,22.87
2019-05-01T14:53:39.775Z,22.88
2019-05-01T14:58:42.546Z,23.26
2019-05-01T15:03:45.313Z,22.73
2019-05-01T15:08:48.202Z,23.06
2019-05-01T15:14:10.576Z,23.80
2019-05-01T15:19:21.667Z,24.15
2019-05-01T15:24:24.509Z,23.60
2019-05-01T15:29:27.244Z,23.78
2019-05-01T15:34:29.978Z,23.76
2019-05-01T15:39:37.971Z,23.59
2019-05-01T15:44:41.548Z,23.68
2019-05-01T15:49:44.299Z,23.40
2019-05-01T15:54:47.054Z,23.76
2019-05-01T15:59:49.808Z,23.73
2019-05-01T16:04:52.541Z,23.61
2019-05-01T16:09:55.321Z,23.35
2019-05-01T16:14:58.167Z,22.67
2019-05-01T16:20:00.913Z,22.52
2019-05-01T16:25:04.516Z,22.69
2019-05-01T16:30:08.152Z,22.73
2019-05-01T16:35:11.122Z,22.69
2019-05-01T16:40:24.393Z,22.25
2019-05-01T16:45:27.170Z,21.95
2019-05-01T16:50:29.905Z,22.04
2019-05-01T16:55:32.760Z,22.17
2019-05-01T17:01:06.225Z,21.88
2019-05-01T17:06:15.945Z,21.39
2019-05-01T17:11:26.075Z,21.19
2019-05-01T17:21:45.791Z,20.82
2019-05-01T17:26:48.497Z,20.08
2019-05-01T17:31:51.250Z,19.84
2019-05-01T17:36:53.988Z,19.65
2019-05-01T17:42:01.578Z,19.56
2019-05-01T17:47:01.654Z,19.45
2019-05-01T17:52:04.365Z,19.25
2019-05-01T17:57:07.247Z,19.02
2019-05-01T18:02:19.898Z,18.76
2019-05-01T18:07:22.774Z,18.64
2019-05-01T18:12:28.394Z,18.42
2019-05-01T18:17:30.495Z,18.40
2019-05-01T18:22:52.263Z,18.31
2019-05-01T18:28:17.298Z,18.24
2019-05-01T18:33:22.050Z,17.99
2019-05-01T18:38:31.913Z,17.85
2019-05-01T18:43:34.728Z,17.64
2019-05-01T18:48:37.665Z,17.56
2019-05-01T18:53:41.385Z,17.44
2019-05-01T18:58:44.095Z,17.26
2019-05-01T19:03:46.912Z,17.01
2019-05-01T19:08:49.633Z,16.90
2019-05-01T19:13:52.457Z,16.58
2019-05-01T19:18:55.308Z,16.40
2019-05-01T19:24:00.443Z,16.21
2019-05-01T19:29:03.108Z,16.05
2019-05-01T19:34:06.126Z,15.84
2019-05-01T19:39:11.687Z,15.50
2019-05-01T19:44:13.846Z,15.22
2019-05-01T19:49:18.099Z,15.00
2019-05-01T19:54:23.159Z,14.90
2019-05-01T19:59:25.455Z,14.89
2019-05-01T20:04:29.107Z,14.68
2019-05-01T20:09:31.828Z,14.58
2019-05-01T20:14:34.526Z,14.40
2019-05-01T20:19:37.334Z,14.41
2019-05-01T20:24:44.154Z,14.48
2019-05-01T20:29:44.645Z,14.37
2019-05-01T20:34:48.059Z,14.33
2019-05-01T20:39:51.976Z,14.19
2019-05-01T20:45:04.385Z,14.05
2019-05-01T20:49:59.293Z,14.11
2019-05-01T20:55:02.011Z,14.15
2019-05-01T21:00:06.176Z,14.21
2019-05-01T21:05:21.330Z,14.17
2019-05-01T21:10:29.848Z,14.16
2019-05-01T21:15:32.977Z,14.20
2019-05-01T21:20:35.739Z,14.12
2019-05-01T21:25:38.433Z,14.03
2019-05-01T21:30:43.899Z,13.97
2019-05-01T21:35:45.749Z,13.88
2019-05-01T21:40:48.449Z,13.76
2019-05-01T21:45:51.143Z,13.62
2019-05-01T21:50:57.933Z,13.57
2019-05-01T21:56:02.176Z,13.48
2019-05-01T22:01:04.931Z,13.42
2019-05-01T22:06:11.362Z,13.36
2019-05-01T22:11:12.321Z,13.28
2019-05-01T22:16:23.733Z,13.27
2019-05-01T22:21:44.189Z,13.13
2019-05-01T22:26:57.530Z,12.97
2019-05-01T22:32:14.355Z,12.89
2019-05-01T22:37:17.177Z,12.80
2019-05-01T22:42:19.992Z,12.69
2019-05-01T22:47:22.694Z,12.58
2019-05-01T22:52:25.418Z,12.47
2019-05-01T22:57:28.200Z,12.37
2019-05-01T23:02:39.969Z,12.32
2019-05-01T23:07:42.697Z,12.30
2019-05-01T23:12:45.604Z,12.30
2019-05-01T23:17:48.509Z,12.26
2019-05-01T23:22:51.215Z,12.13
2019-05-01T23:27:53.897Z,12.04
2019-05-01T23:32:56.910Z,12.01
2019-05-01T23:37:59.616Z,11.98
2019-05-01T23:43:02.302Z,11.93
2019-05-01T23:48:05.016Z,11.98
2019-05-01T23:53:09.011Z,11.98
2019-05-01T23:58:12.708Z,11.95
